sensor_id;sensor_type;location;lat;lon;timestamp;P1;durP1;ratioP1;P2;durP2;ratioP2
54123;SDS011;55741;53.252;5.788;2023-05-07T00:00:12;31.00;;;25.75;;
54123;SDS011;55741;53.252;5.788;2023-05-07T00:02:40;35.47;;;28.23;;
54123;SDS011;55741;53.252;5.788;2023-05-07T00:05:06;31.35;;;26.45;;
54123;SDS011;55741;53.252;5.788;2023-05-07T00:07:32;33.08;;;27.10;;
54123;SDS011;55741;53.252;5.788;2023-05-07T00:09:58;30.85;;;27.48;;
54123;SDS011;55741;53.252;5.788;2023-05-07T00:12:24;29.58;;;26.00;;
54123;SDS011;55741;53.252;5.788;2023-05-07T00:14:50;34.90;;;28.20;;
54123;SDS011;55741;53.252;5.788;2023-05-07T00:17:16;32.65;;;27.35;;
54123;SDS011;55741;53.252;5.788;2023-05-07T00:19:42;32.75;;;28.27;;
54123;SDS011;55741;53.252;5.788;2023-05-07T00:22:08;36.35;;;30.05;;
54123;SDS011;55741;53.252;5.788;2023-05-07T00:24:33;33.58;;;26.40;;
54123;SDS011;55741;53.252;5.788;2023-05-07T00:26:59;36.10;;;27.65;;
54123;SDS011;55741;53.252;5.788;2023-05-07T00:29:25;34.40;;;26.65;;
54123;SDS011;55741;53.252;5.788;2023-05-07T00:31:51;37.28;;;29.63;;
54123;SDS011;55741;53.252;5.788;2023-05-07T00:34:19;37.63;;;30.35;;
54123;SDS011;55741;53.252;5.788;2023-05-07T00:36:45;37.55;;;30.08;;
54123;SDS011;55741;53.252;5.788;2023-05-07T00:39:11;43.58;;;30.38;;
54123;SDS011;55741;53.252;5.788;2023-05-07T00:41:37;38.13;;;29.10;;
54123;SDS011;55741;53.252;5.788;2023-05-07T00:44:02;36.72;;;29.75;;
54123;SDS011;55741;53.252;5.788;2023-05-07T00:46:28;37.88;;;32.33;;
54123;SDS011;55741;53.252;5.788;2023-05-07T00:48:56;41.47;;;33.67;;
54123;SDS011;55741;53.252;5.788;2023-05-07T00:51:23;48.08;;;35.17;;
54123;SDS011;55741;53.252;5.788;2023-05-07T00:53:50;41.15;;;32.85;;
54123;SDS011;55741;53.252;5.788;2023-05-07T00:56:17;42.90;;;33.33;;
54123;SDS011;55741;53.252;5.788;2023-05-07T00:58:44;41.55;;;30.25;;
54123;SDS011;55741;53.252;5.788;2023-05-07T01:01:10;39.85;;;30.33;;
54123;SDS011;55741;53.252;5.788;2023-05-07T01:03:36;34.72;;;29.75;;
54123;SDS011;55741;53.252;5.788;2023-05-07T01:06:01;41.03;;;28.95;;
54123;SDS011;55741;53.252;5.788;2023-05-07T01:08:28;39.40;;;30.50;;
54123;SDS011;55741;53.252;5.788;2023-05-07T01:10:56;39.53;;;30.13;;
54123;SDS011;55741;53.252;5.788;2023-05-07T01:13:22;39.67;;;30.02;;
54123;SDS011;55741;53.252;5.788;2023-05-07T01:15:49;35.83;;;29.40;;
54123;SDS011;55741;53.252;5.788;2023-05-07T01:18:15;37.03;;;28.38;;
54123;SDS011;55741;53.252;5.788;2023-05-07T01:20:41;45.88;;;31.90;;
54123;SDS011;55741;53.252;5.788;2023-05-07T01:23:08;34.70;;;29.30;;
54123;SDS011;55741;53.252;5.788;2023-05-07T01:25:35;43.78;;;31.95;;
54123;SDS011;55741;53.252;5.788;2023-05-07T01:28:01;36.35;;;29.67;;
54123;SDS011;55741;53.252;5.788;2023-05-07T01:30:27;39.83;;;30.15;;
54123;SDS011;55741;53.252;5.788;2023-05-07T01:32:59;39.88;;;30.70;;
54123;SDS011;55741;53.252;5.788;2023-05-07T01:35:33;34.22;;;28.08;;
54123;SDS011;55741;53.252;5.788;2023-05-07T01:38:03;40.42;;;29.27;;
54123;SDS011;55741;53.252;5.788;2023-05-07T01:40:31;43.65;;;31.10;;
54123;SDS011;55741;53.252;5.788;2023-05-07T01:42:57;34.10;;;27.80;;
54123;SDS011;55741;53.252;5.788;2023-05-07T01:45:23;34.67;;;29.27;;
54123;SDS011;55741;53.252;5.788;2023-05-07T01:47:50;37.25;;;29.63;;
54123;SDS011;55741;53.252;5.788;2023-05-07T01:50:18;37.03;;;30.83;;
54123;SDS011;55741;53.252;5.788;2023-05-07T01:52:45;45.55;;;33.60;;
54123;SDS011;55741;53.252;5.788;2023-05-07T01:55:12;36.65;;;30.20;;
54123;SDS011;55741;53.252;5.788;2023-05-07T01:57:39;38.78;;;31.17;;
54123;SDS011;55741;53.252;5.788;2023-05-07T02:00:05;36.75;;;31.20;;
54123;SDS011;55741;53.252;5.788;2023-05-07T02:02:31;41.05;;;30.52;;
54123;SDS011;55741;53.252;5.788;2023-05-07T02:04:58;38.75;;;31.38;;
54123;SDS011;55741;53.252;5.788;2023-05-07T02:07:24;41.45;;;32.60;;
54123;SDS011;55741;53.252;5.788;2023-05-07T02:09:50;38.95;;;31.05;;
54123;SDS011;55741;53.252;5.788;2023-05-07T02:12:16;38.33;;;31.45;;
54123;SDS011;55741;53.252;5.788;2023-05-07T02:14:42;51.50;;;32.97;;
54123;SDS011;55741;53.252;5.788;2023-05-07T02:17:07;35.05;;;31.38;;
54123;SDS011;55741;53.252;5.788;2023-05-07T02:19:33;43.90;;;34.13;;
54123;SDS011;55741;53.252;5.788;2023-05-07T02:22:00;42.15;;;31.90;;
54123;SDS011;55741;53.252;5.788;2023-05-07T02:24:26;47.10;;;33.92;;
54123;SDS011;55741;53.252;5.788;2023-05-07T02:26:51;40.75;;;32.60;;
54123;SDS011;55741;53.252;5.788;2023-05-07T02:29:17;40.80;;;35.08;;
54123;SDS011;55741;53.252;5.788;2023-05-07T02:31:43;43.40;;;34.15;;
54123;SDS011;55741;53.252;5.788;2023-05-07T02:34:09;41.50;;;33.40;;
54123;SDS011;55741;53.252;5.788;2023-05-07T02:36:35;44.70;;;34.97;;
54123;SDS011;55741;53.252;5.788;2023-05-07T02:39:00;43.47;;;33.42;;
54123;SDS011;55741;53.252;5.788;2023-05-07T02:41:27;40.88;;;33.30;;
54123;SDS011;55741;53.252;5.788;2023-05-07T02:43:53;47.75;;;34.67;;
54123;SDS011;55741;53.252;5.788;2023-05-07T02:46:19;44.17;;;34.03;;
54123;SDS011;55741;53.252;5.788;2023-05-07T02:48:45;43.35;;;36.63;;
54123;SDS011;55741;53.252;5.788;2023-05-07T02:51:10;43.75;;;34.45;;
54123;SDS011;55741;53.252;5.788;2023-05-07T02:53:36;41.83;;;32.10;;
54123;SDS011;55741;53.252;5.788;2023-05-07T02:56:02;45.20;;;34.25;;
54123;SDS011;55741;53.252;5.788;2023-05-07T02:58:30;46.00;;;34.60;;
54123;SDS011;55741;53.252;5.788;2023-05-07T03:00:55;39.78;;;33.80;;
54123;SDS011;55741;53.252;5.788;2023-05-07T03:03:21;40.67;;;31.50;;
54123;SDS011;55741;53.252;5.788;2023-05-07T03:05:47;43.28;;;34.60;;
54123;SDS011;55741;53.252;5.788;2023-05-07T03:08:13;45.38;;;34.80;;
54123;SDS011;55741;53.252;5.788;2023-05-07T03:10:39;38.95;;;34.35;;
54123;SDS011;55741;53.252;5.788;2023-05-07T03:13:05;38.63;;;31.67;;
54123;SDS011;55741;53.252;5.788;2023-05-07T03:15:31;38.53;;;32.50;;
54123;SDS011;55741;53.252;5.788;2023-05-07T03:17:56;43.33;;;34.17;;
54123;SDS011;55741;53.252;5.788;2023-05-07T03:20:22;48.08;;;34.40;;
54123;SDS011;55741;53.252;5.788;2023-05-07T03:22:48;39.20;;;31.90;;
54123;SDS011;55741;53.252;5.788;2023-05-07T03:25:14;41.00;;;33.42;;
54123;SDS011;55741;53.252;5.788;2023-05-07T03:27:40;44.53;;;34.60;;
54123;SDS011;55741;53.252;5.788;2023-05-07T03:30:07;44.85;;;35.95;;
54123;SDS011;55741;53.252;5.788;2023-05-07T03:32:34;41.50;;;33.30;;
54123;SDS011;55741;53.252;5.788;2023-05-07T03:35:00;45.25;;;35.58;;
54123;SDS011;55741;53.252;5.788;2023-05-07T03:37:27;44.88;;;35.53;;
54123;SDS011;55741;53.252;5.788;2023-05-07T03:39:53;41.28;;;34.42;;
54123;SDS011;55741;53.252;5.788;2023-05-07T03:42:19;49.50;;;37.13;;
54123;SDS011;55741;53.252;5.788;2023-05-07T03:44:45;43.90;;;35.38;;
54123;SDS011;55741;53.252;5.788;2023-05-07T03:47:11;44.42;;;34.63;;
54123;SDS011;55741;53.252;5.788;2023-05-07T03:49:38;45.25;;;36.15;;
54123;SDS011;55741;53.252;5.788;2023-05-07T03:52:04;43.08;;;35.20;;
54123;SDS011;55741;53.252;5.788;2023-05-07T03:54:31;45.08;;;35.55;;
54123;SDS011;55741;53.252;5.788;2023-05-07T03:56:57;48.28;;;38.30;;
54123;SDS011;55741;53.252;5.788;2023-05-07T03:59:24;44.67;;;34.10;;
54123;SDS011;55741;53.252;5.788;2023-05-07T04:01:50;46.45;;;37.55;;
54123;SDS011;55741;53.252;5.788;2023-05-07T04:04:16;46.05;;;35.97;;
54123;SDS011;55741;53.252;5.788;2023-05-07T04:06:42;49.05;;;37.17;;
54123;SDS011;55741;53.252;5.788;2023-05-07T04:09:08;49.20;;;38.55;;
54123;SDS011;55741;53.252;5.788;2023-05-07T04:11:34;55.42;;;40.42;;
54123;SDS011;55741;53.252;5.788;2023-05-07T04:14:01;51.83;;;38.95;;
54123;SDS011;55741;53.252;5.788;2023-05-07T04:16:27;46.72;;;37.78;;
54123;SDS011;55741;53.252;5.788;2023-05-07T04:18:52;49.50;;;39.33;;
54123;SDS011;55741;53.252;5.788;2023-05-07T04:21:19;53.55;;;40.30;;
54123;SDS011;55741;53.252;5.788;2023-05-07T04:23:49;53.10;;;37.97;;
54123;SDS011;55741;53.252;5.788;2023-05-07T04:26:15;52.40;;;39.72;;
54123;SDS011;55741;53.252;5.788;2023-05-07T04:28:41;52.50;;;38.63;;
54123;SDS011;55741;53.252;5.788;2023-05-07T04:31:07;52.90;;;39.60;;
54123;SDS011;55741;53.252;5.788;2023-05-07T04:33:33;52.83;;;41.15;;
54123;SDS011;55741;53.252;5.788;2023-05-07T04:36:02;51.83;;;37.30;;
54123;SDS011;55741;53.252;5.788;2023-05-07T04:38:32;50.65;;;39.22;;
54123;SDS011;55741;53.252;5.788;2023-05-07T04:41:04;52.22;;;40.47;;
54123;SDS011;55741;53.252;5.788;2023-05-07T04:43:31;54.33;;;40.55;;
54123;SDS011;55741;53.252;5.788;2023-05-07T04:45:57;54.45;;;41.47;;
54123;SDS011;55741;53.252;5.788;2023-05-07T04:48:23;56.53;;;40.03;;
54123;SDS011;55741;53.252;5.788;2023-05-07T04:50:50;56.03;;;40.42;;
54123;SDS011;55741;53.252;5.788;2023-05-07T04:53:16;56.67;;;40.75;;
54123;SDS011;55741;53.252;5.788;2023-05-07T04:55:42;66.82;;;42.78;;
54123;SDS011;55741;53.252;5.788;2023-05-07T04:58:09;60.17;;;42.92;;
54123;SDS011;55741;53.252;5.788;2023-05-07T05:00:36;54.92;;;40.83;;
54123;SDS011;55741;53.252;5.788;2023-05-07T05:03:07;65.43;;;43.38;;
54123;SDS011;55741;53.252;5.788;2023-05-07T05:05:32;62.05;;;44.72;;
54123;SDS011;55741;53.252;5.788;2023-05-07T05:07:59;62.50;;;44.67;;
54123;SDS011;55741;53.252;5.788;2023-05-07T05:10:24;60.83;;;41.97;;
54123;SDS011;55741;53.252;5.788;2023-05-07T05:12:51;55.28;;;41.83;;
54123;SDS011;55741;53.252;5.788;2023-05-07T05:15:16;54.72;;;40.20;;
54123;SDS011;55741;53.252;5.788;2023-05-07T05:17:42;61.60;;;43.17;;
54123;SDS011;55741;53.252;5.788;2023-05-07T05:20:09;60.35;;;43.53;;
54123;SDS011;55741;53.252;5.788;2023-05-07T05:22:36;57.88;;;42.70;;
54123;SDS011;55741;53.252;5.788;2023-05-07T05:25:03;58.65;;;42.60;;
54123;SDS011;55741;53.252;5.788;2023-05-07T05:27:29;56.72;;;41.45;;
54123;SDS011;55741;53.252;5.788;2023-05-07T05:29:54;59.47;;;42.70;;
54123;SDS011;55741;53.252;5.788;2023-05-07T05:32:20;60.65;;;43.53;;
54123;SDS011;55741;53.252;5.788;2023-05-07T05:34:47;57.10;;;41.40;;
54123;SDS011;55741;53.252;5.788;2023-05-07T05:37:13;60.15;;;43.35;;
54123;SDS011;55741;53.252;5.788;2023-05-07T05:39:39;58.83;;;42.30;;
54123;SDS011;55741;53.252;5.788;2023-05-07T05:42:05;61.08;;;41.88;;
54123;SDS011;55741;53.252;5.788;2023-05-07T05:44:31;59.17;;;41.08;;
54123;SDS011;55741;53.252;5.788;2023-05-07T05:46:56;61.28;;;42.08;;
54123;SDS011;55741;53.252;5.788;2023-05-07T05:49:24;55.50;;;41.80;;
54123;SDS011;55741;53.252;5.788;2023-05-07T05:51:50;55.95;;;40.88;;
54123;SDS011;55741;53.252;5.788;2023-05-07T05:54:16;66.68;;;44.03;;
54123;SDS011;55741;53.252;5.788;2023-05-07T05:56:42;54.30;;;41.15;;
54123;SDS011;55741;53.252;5.788;2023-05-07T05:59:08;56.97;;;42.38;;
54123;SDS011;55741;53.252;5.788;2023-05-07T06:01:35;57.05;;;41.28;;
54123;SDS011;55741;53.252;5.788;2023-05-07T06:04:01;59.35;;;43.97;;
54123;SDS011;55741;53.252;5.788;2023-05-07T06:06:27;58.80;;;43.53;;
54123;SDS011;55741;53.252;5.788;2023-05-07T06:08:53;52.53;;;41.53;;
54123;SDS011;55741;53.252;5.788;2023-05-07T06:11:19;62.92;;;43.97;;
54123;SDS011;55741;53.252;5.788;2023-05-07T06:13:45;56.83;;;40.08;;
54123;SDS011;55741;53.252;5.788;2023-05-07T06:16:11;61.92;;;42.42;;
54123;SDS011;55741;53.252;5.788;2023-05-07T06:18:37;57.47;;;41.20;;
54123;SDS011;55741;53.252;5.788;2023-05-07T06:21:03;58.03;;;41.92;;
54123;SDS011;55741;53.252;5.788;2023-05-07T06:23:29;55.00;;;40.70;;
54123;SDS011;55741;53.252;5.788;2023-05-07T06:25:55;59.13;;;41.88;;
54123;SDS011;55741;53.252;5.788;2023-05-07T06:28:21;59.28;;;41.72;;
54123;SDS011;55741;53.252;5.788;2023-05-07T06:30:46;59.42;;;40.85;;
54123;SDS011;55741;53.252;5.788;2023-05-07T06:33:15;51.92;;;39.45;;
54123;SDS011;55741;53.252;5.788;2023-05-07T06:35:41;51.28;;;38.55;;
54123;SDS011;55741;53.252;5.788;2023-05-07T06:38:07;51.20;;;40.50;;
54123;SDS011;55741;53.252;5.788;2023-05-07T06:40:32;49.65;;;37.40;;
54123;SDS011;55741;53.252;5.788;2023-05-07T06:42:58;47.00;;;36.65;;
54123;SDS011;55741;53.252;5.788;2023-05-07T06:45:24;50.72;;;38.28;;
54123;SDS011;55741;53.252;5.788;2023-05-07T06:47:50;51.47;;;36.90;;
54123;SDS011;55741;53.252;5.788;2023-05-07T06:50:16;48.10;;;36.33;;
54123;SDS011;55741;53.252;5.788;2023-05-07T06:52:42;52.58;;;37.78;;
54123;SDS011;55741;53.252;5.788;2023-05-07T06:55:08;48.67;;;36.90;;
54123;SDS011;55741;53.252;5.788;2023-05-07T06:57:34;46.70;;;36.65;;
54123;SDS011;55741;53.252;5.788;2023-05-07T07:00:00;44.58;;;35.38;;
54123;SDS011;55741;53.252;5.788;2023-05-07T07:02:27;49.20;;;37.05;;
54123;SDS011;55741;53.252;5.788;2023-05-07T07:04:53;47.50;;;36.50;;
54123;SDS011;55741;53.252;5.788;2023-05-07T07:07:19;47.63;;;34.28;;
54123;SDS011;55741;53.252;5.788;2023-05-07T07:09:45;44.75;;;35.88;;
54123;SDS011;55741;53.252;5.788;2023-05-07T07:12:11;44.00;;;35.67;;
54123;SDS011;55741;53.252;5.788;2023-05-07T07:14:37;45.92;;;35.35;;
54123;SDS011;55741;53.252;5.788;2023-05-07T07:17:02;46.75;;;36.45;;
54123;SDS011;55741;53.252;5.788;2023-05-07T07:19:30;43.50;;;35.10;;
54123;SDS011;55741;53.252;5.788;2023-05-07T07:21:56;45.95;;;36.53;;
54123;SDS011;55741;53.252;5.788;2023-05-07T07:24:22;42.13;;;36.20;;
54123;SDS011;55741;53.252;5.788;2023-05-07T07:26:47;40.90;;;34.75;;
54123;SDS011;55741;53.252;5.788;2023-05-07T07:29:13;39.10;;;32.80;;
54123;SDS011;55741;53.252;5.788;2023-05-07T07:31:42;42.40;;;32.70;;
54123;SDS011;55741;53.252;5.788;2023-05-07T07:34:08;41.97;;;33.15;;
54123;SDS011;55741;53.252;5.788;2023-05-07T07:36:34;37.67;;;32.65;;
54123;SDS011;55741;53.252;5.788;2023-05-07T07:39:00;39.67;;;34.22;;
54123;SDS011;55741;53.252;5.788;2023-05-07T07:41:26;41.03;;;33.83;;
54123;SDS011;55741;53.252;5.788;2023-05-07T07:43:52;41.80;;;33.55;;
54123;SDS011;55741;53.252;5.788;2023-05-07T07:46:17;37.33;;;32.60;;
54123;SDS011;55741;53.252;5.788;2023-05-07T07:48:43;41.10;;;32.38;;
54123;SDS011;55741;53.252;5.788;2023-05-07T07:51:09;38.10;;;33.13;;
54123;SDS011;55741;53.252;5.788;2023-05-07T07:53:35;36.92;;;31.08;;
54123;SDS011;55741;53.252;5.788;2023-05-07T07:56:01;38.67;;;31.52;;
54123;SDS011;55741;53.252;5.788;2023-05-07T07:58:27;35.95;;;30.98;;
54123;SDS011;55741;53.252;5.788;2023-05-07T08:00:53;36.88;;;32.10;;
54123;SDS011;55741;53.252;5.788;2023-05-07T08:03:22;34.80;;;30.48;;
54123;SDS011;55741;53.252;5.788;2023-05-07T08:05:48;35.15;;;30.40;;
54123;SDS011;55741;53.252;5.788;2023-05-07T08:08:16;35.72;;;30.55;;
54123;SDS011;55741;53.252;5.788;2023-05-07T08:10:42;37.75;;;30.65;;
54123;SDS011;55741;53.252;5.788;2023-05-07T08:13:07;34.22;;;30.27;;
54123;SDS011;55741;53.252;5.788;2023-05-07T08:15:33;33.03;;;28.83;;
54123;SDS011;55741;53.252;5.788;2023-05-07T08:18:00;34.22;;;30.02;;
54123;SDS011;55741;53.252;5.788;2023-05-07T08:20:27;33.03;;;29.02;;
54123;SDS011;55741;53.252;5.788;2023-05-07T08:22:54;36.63;;;30.27;;
54123;SDS011;55741;53.252;5.788;2023-05-07T08:25:19;33.08;;;29.48;;
54123;SDS011;55741;53.252;5.788;2023-05-07T08:27:45;35.15;;;30.45;;
54123;SDS011;55741;53.252;5.788;2023-05-07T08:30:11;35.03;;;29.00;;
54123;SDS011;55741;53.252;5.788;2023-05-07T08:32:38;33.80;;;28.23;;
54123;SDS011;55741;53.252;5.788;2023-05-07T08:35:04;35.15;;;28.95;;
54123;SDS011;55741;53.252;5.788;2023-05-07T08:37:30;30.90;;;27.60;;
54123;SDS011;55741;53.252;5.788;2023-05-07T08:39:56;31.38;;;27.95;;
54123;SDS011;55741;53.252;5.788;2023-05-07T08:42:23;31.55;;;27.35;;
54123;SDS011;55741;53.252;5.788;2023-05-07T08:44:50;32.63;;;27.42;;
54123;SDS011;55741;53.252;5.788;2023-05-07T08:47:20;30.55;;;27.27;;
54123;SDS011;55741;53.252;5.788;2023-05-07T08:49:49;32.42;;;28.00;;
54123;SDS011;55741;53.252;5.788;2023-05-07T08:52:16;34.05;;;28.20;;
54123;SDS011;55741;53.252;5.788;2023-05-07T08:54:41;33.95;;;28.98;;
54123;SDS011;55741;53.252;5.788;2023-05-07T08:57:08;36.80;;;28.40;;
54123;SDS011;55741;53.252;5.788;2023-05-07T08:59:34;32.00;;;26.38;;
54123;SDS011;55741;53.252;5.788;2023-05-07T09:01:59;37.17;;;29.10;;
54123;SDS011;55741;53.252;5.788;2023-05-07T09:04:27;31.70;;;27.80;;
54123;SDS011;55741;53.252;5.788;2023-05-07T09:06:53;31.95;;;27.75;;
54123;SDS011;55741;53.252;5.788;2023-05-07T09:09:19;30.25;;;27.02;;
54123;SDS011;55741;53.252;5.788;2023-05-07T09:11:47;30.77;;;27.50;;
54123;SDS011;55741;53.252;5.788;2023-05-07T09:14:12;31.90;;;27.73;;
54123;SDS011;55741;53.252;5.788;2023-05-07T09:16:38;32.60;;;26.10;;
54123;SDS011;55741;53.252;5.788;2023-05-07T09:19:04;32.85;;;29.30;;
54123;SDS011;55741;53.252;5.788;2023-05-07T09:21:30;35.67;;;28.90;;
54123;SDS011;55741;53.252;5.788;2023-05-07T09:23:56;30.33;;;27.17;;
54123;SDS011;55741;53.252;5.788;2023-05-07T09:26:23;30.70;;;27.02;;
54123;SDS011;55741;53.252;5.788;2023-05-07T09:28:49;29.88;;;26.67;;
54123;SDS011;55741;53.252;5.788;2023-05-07T09:31:16;29.70;;;25.98;;
54123;SDS011;55741;53.252;5.788;2023-05-07T09:33:42;29.25;;;26.08;;
54123;SDS011;55741;53.252;5.788;2023-05-07T09:36:09;28.30;;;25.27;;
54123;SDS011;55741;53.252;5.788;2023-05-07T09:38:35;28.52;;;25.48;;
54123;SDS011;55741;53.252;5.788;2023-05-07T09:43:31;32.97;;;27.52;;
54123;SDS011;55741;53.252;5.788;2023-05-07T09:46:23;32.33;;;26.25;;
54123;SDS011;55741;53.252;5.788;2023-05-07T09:48:50;31.85;;;27.35;;
54123;SDS011;55741;53.252;5.788;2023-05-07T09:51:25;31.45;;;28.13;;
54123;SDS011;55741;53.252;5.788;2023-05-07T09:53:55;30.35;;;27.10;;
54123;SDS011;55741;53.252;5.788;2023-05-07T09:56:22;30.67;;;27.40;;
54123;SDS011;55741;53.252;5.788;2023-05-07T09:58:49;29.42;;;26.38;;
54123;SDS011;55741;53.252;5.788;2023-05-07T10:01:19;27.80;;;24.88;;
54123;SDS011;55741;53.252;5.788;2023-05-07T10:03:47;30.77;;;27.35;;
54123;SDS011;55741;53.252;5.788;2023-05-07T10:06:17;28.75;;;25.75;;
54123;SDS011;55741;53.252;5.788;2023-05-07T10:08:43;28.40;;;25.50;;
54123;SDS011;55741;53.252;5.788;2023-05-07T10:11:09;28.92;;;25.92;;
54123;SDS011;55741;53.252;5.788;2023-05-07T10:13:36;28.92;;;26.02;;
54123;SDS011;55741;53.252;5.788;2023-05-07T10:16:03;28.65;;;25.42;;
54123;SDS011;55741;53.252;5.788;2023-05-07T10:18:33;29.13;;;26.02;;
54123;SDS011;55741;53.252;5.788;2023-05-07T10:21:01;29.80;;;25.10;;
54123;SDS011;55741;53.252;5.788;2023-05-07T10:23:32;27.55;;;24.65;;
54123;SDS011;55741;53.252;5.788;2023-05-07T10:25:59;28.05;;;25.13;;
54123;SDS011;55741;53.252;5.788;2023-05-07T10:28:30;28.35;;;25.35;;
54123;SDS011;55741;53.252;5.788;2023-05-07T10:31:09;30.63;;;27.38;;
54123;SDS011;55741;53.252;5.788;2023-05-07T10:33:41;29.77;;;25.60;;
54123;SDS011;55741;53.252;5.788;2023-05-07T10:36:09;28.70;;;25.63;;
54123;SDS011;55741;53.252;5.788;2023-05-07T10:38:35;29.33;;;26.25;;
54123;SDS011;55741;53.252;5.788;2023-05-07T10:41:01;28.58;;;25.67;;
54123;SDS011;55741;53.252;5.788;2023-05-07T10:43:39;28.90;;;25.85;;
54123;SDS011;55741;53.252;5.788;2023-05-07T10:49:16;27.95;;;25.05;;
54123;SDS011;55741;53.252;5.788;2023-05-07T10:51:36;29.52;;;24.70;;
54123;SDS011;55741;53.252;5.788;2023-05-07T10:56:34;28.77;;;24.35;;
54123;SDS011;55741;53.252;5.788;2023-05-07T11:02:02;28.63;;;25.45;;
54123;SDS011;55741;53.252;5.788;2023-05-07T11:04:31;30.88;;;26.80;;
54123;SDS011;55741;53.252;5.788;2023-05-07T11:07:14;28.52;;;25.40;;
54123;SDS011;55741;53.252;5.788;2023-05-07T11:13:00;33.13;;;26.25;;
54123;SDS011;55741;53.252;5.788;2023-05-07T11:15:11;28.42;;;25.42;;
54123;SDS011;55741;53.252;5.788;2023-05-07T11:17:56;28.75;;;25.77;;
54123;SDS011;55741;53.252;5.788;2023-05-07T11:26:10;30.63;;;27.08;;
54123;SDS011;55741;53.252;5.788;2023-05-07T11:28:37;28.23;;;25.23;;
54123;SDS011;55741;53.252;5.788;2023-05-07T11:31:04;29.83;;;26.63;;
54123;SDS011;55741;53.252;5.788;2023-05-07T11:33:30;32.25;;;26.75;;
54123;SDS011;55741;53.252;5.788;2023-05-07T11:35:57;28.50;;;25.52;;
54123;SDS011;55741;53.252;5.788;2023-05-07T11:38:24;28.35;;;25.48;;
54123;SDS011;55741;53.252;5.788;2023-05-07T11:40:51;27.10;;;24.20;;
54123;SDS011;55741;53.252;5.788;2023-05-07T11:43:18;27.42;;;24.63;;
54123;SDS011;55741;53.252;5.788;2023-05-07T11:45:44;26.55;;;23.67;;
54123;SDS011;55741;53.252;5.788;2023-05-07T11:48:15;25.70;;;23.08;;
54123;SDS011;55741;53.252;5.788;2023-05-07T11:50:51;26.27;;;23.50;;
54123;SDS011;55741;53.252;5.788;2023-05-07T11:53:27;27.00;;;24.17;;
54123;SDS011;55741;53.252;5.788;2023-05-07T11:56:00;26.77;;;22.48;;
54123;SDS011;55741;53.252;5.788;2023-05-07T11:58:34;26.15;;;23.48;;
54123;SDS011;55741;53.252;5.788;2023-05-07T12:01:01;26.17;;;23.45;;
54123;SDS011;55741;53.252;5.788;2023-05-07T12:03:27;27.85;;;24.85;;
54123;SDS011;55741;53.252;5.788;2023-05-07T12:05:53;25.55;;;22.95;;
54123;SDS011;55741;53.252;5.788;2023-05-07T12:08:21;25.02;;;22.58;;
54123;SDS011;55741;53.252;5.788;2023-05-07T12:10:48;23.80;;;21.45;;
54123;SDS011;55741;53.252;5.788;2023-05-07T12:13:15;25.25;;;22.45;;
54123;SDS011;55741;53.252;5.788;2023-05-07T12:15:45;23.52;;;21.08;;
54123;SDS011;55741;53.252;5.788;2023-05-07T12:18:11;22.50;;;20.30;;
54123;SDS011;55741;53.252;5.788;2023-05-07T12:20:38;22.98;;;20.70;;
54123;SDS011;55741;53.252;5.788;2023-05-07T12:23:04;25.50;;;22.85;;
54123;SDS011;55741;53.252;5.788;2023-05-07T12:25:41;23.02;;;20.58;;
54123;SDS011;55741;53.252;5.788;2023-05-07T12:28:17;20.88;;;18.67;;
54123;SDS011;55741;53.252;5.788;2023-05-07T12:31:03;25.13;;;19.63;;
54123;SDS011;55741;53.252;5.788;2023-05-07T12:33:30;22.83;;;20.58;;
54123;SDS011;55741;53.252;5.788;2023-05-07T12:35:57;25.23;;;21.10;;
54123;SDS011;55741;53.252;5.788;2023-05-07T12:38:23;22.20;;;19.90;;
54123;SDS011;55741;53.252;5.788;2023-05-07T12:40:50;23.08;;;20.85;;
54123;SDS011;55741;53.252;5.788;2023-05-07T12:43:25;23.20;;;20.67;;
54123;SDS011;55741;53.252;5.788;2023-05-07T12:45:56;20.98;;;18.13;;
54123;SDS011;55741;53.252;5.788;2023-05-07T12:48:24;22.58;;;19.50;;
54123;SDS011;55741;53.252;5.788;2023-05-07T12:50:54;20.35;;;18.25;;
54123;SDS011;55741;53.252;5.788;2023-05-07T12:53:21;22.15;;;19.90;;
54123;SDS011;55741;53.252;5.788;2023-05-07T12:55:51;23.60;;;21.13;;
54123;SDS011;55741;53.252;5.788;2023-05-07T13:00:45;22.35;;;19.77;;
54123;SDS011;55741;53.252;5.788;2023-05-07T13:03:20;20.95;;;18.95;;
54123;SDS011;55741;53.252;5.788;2023-05-07T13:05:48;20.48;;;18.35;;
54123;SDS011;55741;53.252;5.788;2023-05-07T13:08:23;21.40;;;19.30;;
54123;SDS011;55741;53.252;5.788;2023-05-07T13:10:54;22.30;;;19.90;;
54123;SDS011;55741;53.252;5.788;2023-05-07T13:13:20;19.92;;;17.83;;
54123;SDS011;55741;53.252;5.788;2023-05-07T13:15:47;21.05;;;18.85;;
54123;SDS011;55741;53.252;5.788;2023-05-07T13:18:13;18.80;;;16.90;;
54123;SDS011;55741;53.252;5.788;2023-05-07T13:20:39;20.20;;;17.98;;
54123;SDS011;55741;53.252;5.788;2023-05-07T13:23:05;21.15;;;18.30;;
54123;SDS011;55741;53.252;5.788;2023-05-07T13:25:31;21.08;;;19.10;;
54123;SDS011;55741;53.252;5.788;2023-05-07T13:27:57;20.23;;;18.13;;
54123;SDS011;55741;53.252;5.788;2023-05-07T13:30:23;19.55;;;17.52;;
54123;SDS011;55741;53.252;5.788;2023-05-07T13:32:49;22.70;;;19.30;;
54123;SDS011;55741;53.252;5.788;2023-05-07T13:35:17;20.08;;;18.02;;
54123;SDS011;55741;53.252;5.788;2023-05-07T13:37:43;19.33;;;17.33;;
54123;SDS011;55741;53.252;5.788;2023-05-07T13:40:09;18.35;;;16.38;;
54123;SDS011;55741;53.252;5.788;2023-05-07T13:42:35;19.50;;;17.60;;
54123;SDS011;55741;53.252;5.788;2023-05-07T13:45:00;18.42;;;16.63;;
54123;SDS011;55741;53.252;5.788;2023-05-07T13:47:29;18.60;;;16.88;;
54123;SDS011;55741;53.252;5.788;2023-05-07T13:49:54;19.58;;;17.38;;
54123;SDS011;55741;53.252;5.788;2023-05-07T13:52:20;20.38;;;18.33;;
54123;SDS011;55741;53.252;5.788;2023-05-07T13:54:46;19.42;;;17.35;;
54123;SDS011;55741;53.252;5.788;2023-05-07T13:57:12;18.27;;;16.45;;
54123;SDS011;55741;53.252;5.788;2023-05-07T13:59:38;17.80;;;15.93;;
54123;SDS011;55741;53.252;5.788;2023-05-07T14:02:04;19.83;;;16.83;;
54123;SDS011;55741;53.252;5.788;2023-05-07T14:04:30;22.88;;;18.50;;
54123;SDS011;55741;53.252;5.788;2023-05-07T14:06:56;19.65;;;17.65;;
54123;SDS011;55741;53.252;5.788;2023-05-07T14:09:22;20.17;;;18.17;;
54123;SDS011;55741;53.252;5.788;2023-05-07T14:11:49;21.10;;;18.77;;
54123;SDS011;55741;53.252;5.788;2023-05-07T14:14:17;18.92;;;16.92;;
54123;SDS011;55741;53.252;5.788;2023-05-07T14:16:43;19.42;;;17.42;;
54123;SDS011;55741;53.252;5.788;2023-05-07T14:19:10;20.67;;;18.67;;
54123;SDS011;55741;53.252;5.788;2023-05-07T14:21:37;20.20;;;18.30;;
54123;SDS011;55741;53.252;5.788;2023-05-07T14:24:02;21.75;;;19.58;;
54123;SDS011;55741;53.252;5.788;2023-05-07T14:26:29;19.77;;;17.80;;
54123;SDS011;55741;53.252;5.788;2023-05-07T14:28:55;19.88;;;17.83;;
54123;SDS011;55741;53.252;5.788;2023-05-07T14:31:23;20.65;;;18.65;;
54123;SDS011;55741;53.252;5.788;2023-05-07T14:33:50;20.50;;;18.50;;
54123;SDS011;55741;53.252;5.788;2023-05-07T14:36:16;20.75;;;18.50;;
54123;SDS011;55741;53.252;5.788;2023-05-07T14:38:45;21.65;;;19.63;;
54123;SDS011;55741;53.252;5.788;2023-05-07T14:41:11;22.35;;;20.15;;